sensor_id;sensor_type;location;lat;lon;timestamp;P1;durP1;ratioP1;P2;durP2;ratioP2
61627;SDS011;55193;52.102;5.242;2022-09-17T00:00:01;9.4;;;1.9;;
61627;SDS011;55193;52.102;5.242;2022-09-17T00:01:38;11.9;;;2.0;;
61627;SDS011;55193;52.102;5.242;2022-09-17T00:03:15;8.71;;;1.9;;
61627;SDS011;55193;52.102;5.242;2022-09-17T00:06:28;11.3;;;2.0;;
61627;SDS011;55193;52.102;5.242;2022-09-17T00:08:06;10.6;;;2.0;;
61627;SDS011;55193;52.102;5.242;2022-09-17T00:09:46;11.3;;;2.1;;
61627;SDS011;55193;52.102;5.242;2022-09-17T00:11:23;9.5;;;2.0;;
61627;SDS011;55193;52.102;5.242;2022-09-17T00:14:37;9.0;;;2.1;;
61627;SDS011;55193;52.102;5.242;2022-09-17T00:16:21;10.7;;;2.0;;
61627;SDS011;55193;52.102;5.242;2022-09-17T00:18:00;6.1;;;1.8;;
61627;SDS011;55193;52.102;5.242;2022-09-17T00:19:36;11.0;;;2.1;;
61627;SDS011;55193;52.102;5.242;2022-09-17T00:22:51;11.9;;;2.21;;
61627;SDS011;55193;52.102;5.242;2022-09-17T00:24:28;9.71;;;1.7;;
61627;SDS011;55193;52.102;5.242;2022-09-17T00:26:04;12.0;;;2.31;;
61627;SDS011;55193;52.102;5.242;2022-09-17T00:29:16;7.8;;;1.8;;
61627;SDS011;55193;52.102;5.242;2022-09-17T00:30:52;10.3;;;2.31;;
61627;SDS011;55193;52.102;5.242;2022-09-17T00:32:28;9.4;;;2.0;;
61627;SDS011;55193;52.102;5.242;2022-09-17T00:35:43;13.0;;;2.21;;
61627;SDS011;55193;52.102;5.242;2022-09-17T00:37:20;13.0;;;2.21;;
61627;SDS011;55193;52.102;5.242;2022-09-17T00:38:57;11.4;;;2.21;;
61627;SDS011;55193;52.102;5.242;2022-09-17T00:40:35;13.0;;;1.9;;
61627;SDS011;55193;52.102;5.242;2022-09-17T00:43:53;8.9;;;1.8;;
61627;SDS011;55193;52.102;5.242;2022-09-17T00:45:31;7.7;;;1.9;;
61627;SDS011;55193;52.102;5.242;2022-09-17T00:47:10;8.4;;;2.0;;
61627;SDS011;55193;52.102;5.242;2022-09-17T00:48:51;6.5;;;1.9;;
61627;SDS011;55193;52.102;5.242;2022-09-17T00:52:11;8.31;;;2.1;;
61627;SDS011;55193;52.102;5.242;2022-09-17T00:53:50;10.8;;;2.1;;
61627;SDS011;55193;52.102;5.242;2022-09-17T00:55:27;8.9;;;2.0;;
61627;SDS011;55193;52.102;5.242;2022-09-17T00:58:43;13.3;;;2.4;;
61627;SDS011;55193;52.102;5.242;2022-09-17T01:00:19;7.5;;;1.8;;
61627;SDS011;55193;52.102;5.242;2022-09-17T01:01:57;11.0;;;2.21;;
61627;SDS011;55193;52.102;5.242;2022-09-17T01:03:34;10.0;;;1.9;;
61627;SDS011;55193;52.102;5.242;2022-09-17T01:06:58;9.0;;;1.8;;
61627;SDS011;55193;52.102;5.242;2022-09-17T01:08:47;10.21;;;2.1;;
61627;SDS011;55193;52.102;5.242;2022-09-17T01:10:43;10.5;;;2.0;;
61627;SDS011;55193;52.102;5.242;2022-09-17T01:12:40;9.4;;;1.8;;
61627;SDS011;55193;52.102;5.242;2022-09-17T01:14:36;9.9;;;1.9;;
61627;SDS011;55193;52.102;5.242;2022-09-17T01:16:32;9.71;;;2.1;;
61627;SDS011;55193;52.102;5.242;2022-09-17T01:18:21;11.9;;;2.4;;
61627;SDS011;55193;52.102;5.242;2022-09-17T01:20:27;11.6;;;2.31;;
61627;SDS011;55193;52.102;5.242;2022-09-17T01:22:38;9.4;;;1.8;;
61627;SDS011;55193;52.102;5.242;2022-09-17T01:24:37;10.21;;;1.9;;
61627;SDS011;55193;52.102;5.242;2022-09-17T01:26:45;9.1;;;1.8;;
61627;SDS011;55193;52.102;5.242;2022-09-17T01:30:18;12.5;;;2.0;;
61627;SDS011;55193;52.102;5.242;2022-09-17T01:32:34;9.81;;;2.1;;
61627;SDS011;55193;52.102;5.242;2022-09-17T01:34:19;8.6;;;1.9;;
61627;SDS011;55193;52.102;5.242;2022-09-17T01:36:05;9.71;;;2.0;;
61627;SDS011;55193;52.102;5.242;2022-09-17T01:38:08;12.1;;;2.21;;
61627;SDS011;55193;52.102;5.242;2022-09-17T01:39:55;9.0;;;2.0;;
61627;SDS011;55193;52.102;5.242;2022-09-17T01:41:40;11.2;;;1.8;;
61627;SDS011;55193;52.102;5.242;2022-09-17T01:43:27;10.7;;;1.8;;
61627;SDS011;55193;52.102;5.242;2022-09-17T01:46:54;11.9;;;2.1;;
61627;SDS011;55193;52.102;5.242;2022-09-17T01:48:39;5.6;;;1.4;;
61627;SDS011;55193;52.102;5.242;2022-09-17T01:50:22;6.9;;;1.4;;
61627;SDS011;55193;52.102;5.242;2022-09-17T01:52:05;9.21;;;1.6;;
61627;SDS011;55193;52.102;5.242;2022-09-17T01:53:47;8.9;;;1.5;;
61627;SDS011;55193;52.102;5.242;2022-09-17T01:57:13;7.7;;;1.4;;
61627;SDS011;55193;52.102;5.242;2022-09-17T01:58:55;8.81;;;1.5;;
61627;SDS011;55193;52.102;5.242;2022-09-17T02:00:37;9.81;;;1.5;;
61627;SDS011;55193;52.102;5.242;2022-09-17T02:02:19;7.8;;;1.7;;
61627;SDS011;55193;52.102;5.242;2022-09-17T02:05:45;5.4;;;1.4;;
61627;SDS011;55193;52.102;5.242;2022-09-17T02:07:28;10.3;;;1.7;;
61627;SDS011;55193;52.102;5.242;2022-09-17T02:09:10;7.0;;;1.4;;
61627;SDS011;55193;52.102;5.242;2022-09-17T02:10:53;9.81;;;1.5;;
61627;SDS011;55193;52.102;5.242;2022-09-17T02:12:34;7.5;;;1.4;;
61627;SDS011;55193;52.102;5.242;2022-09-17T02:16:00;6.4;;;1.4;;
61627;SDS011;55193;52.102;5.242;2022-09-17T02:17:43;7.8;;;1.4;;
61627;SDS011;55193;52.102;5.242;2022-09-17T02:19:26;9.21;;;1.5;;
61627;SDS011;55193;52.102;5.242;2022-09-17T02:21:05;7.0;;;1.8;;
61627;SDS011;55193;52.102;5.242;2022-09-17T02:24:28;9.81;;;1.4;;
61627;SDS011;55193;52.102;5.242;2022-09-17T02:26:13;8.31;;;1.6;;
61627;SDS011;55193;52.102;5.242;2022-09-17T02:27:56;8.71;;;1.5;;
61627;SDS011;55193;52.102;5.242;2022-09-17T02:29:37;11.2;;;1.4;;
61627;SDS011;55193;52.102;5.242;2022-09-17T02:32:53;9.81;;;1.8;;
61627;SDS011;55193;52.102;5.242;2022-09-17T02:34:30;8.9;;;1.6;;
61627;SDS011;55193;52.102;5.242;2022-09-17T02:36:07;9.21;;;1.6;;
61627;SDS011;55193;52.102;5.242;2022-09-17T02:37:43;8.0;;;1.7;;
61627;SDS011;55193;52.102;5.242;2022-09-17T02:40:59;7.0;;;1.3;;
61627;SDS011;55193;52.102;5.242;2022-09-17T02:42:51;9.5;;;1.7;;
61627;SDS011;55193;52.102;5.242;2022-09-17T02:44:42;7.0;;;1.6;;
61627;SDS011;55193;52.102;5.242;2022-09-17T02:46:41;9.1;;;1.5;;
61627;SDS011;55193;52.102;5.242;2022-09-17T02:48:45;9.21;;;1.6;;
61627;SDS011;55193;52.102;5.242;2022-09-17T02:50:43;8.0;;;1.7;;
61627;SDS011;55193;52.102;5.242;2022-09-17T02:52:39;5.9;;;1.5;;
61627;SDS011;55193;52.102;5.242;2022-09-17T02:54:30;8.81;;;1.5;;
61627;SDS011;55193;52.102;5.242;2022-09-17T02:58:04;9.4;;;1.5;;
61627;SDS011;55193;52.102;5.242;2022-09-17T02:59:53;8.9;;;1.7;;
61627;SDS011;55193;52.102;5.242;2022-09-17T03:01:37;9.5;;;1.6;;
61627;SDS011;55193;52.102;5.242;2022-09-17T03:03:19;9.21;;;1.6;;
61627;SDS011;55193;52.102;5.242;2022-09-17T03:05:02;11.4;;;1.8;;
61627;SDS011;55193;52.102;5.242;2022-09-17T03:08:26;9.4;;;1.8;;
61627;SDS011;55193;52.102;5.242;2022-09-17T03:10:03;6.0;;;1.5;;
61627;SDS011;55193;52.102;5.242;2022-09-17T03:11:40;9.0;;;1.7;;
61627;SDS011;55193;52.102;5.242;2022-09-17T03:13:18;8.31;;;1.6;;
61627;SDS011;55193;52.102;5.242;2022-09-17T03:16:31;7.3;;;1.5;;
61627;SDS011;55193;52.102;5.242;2022-09-17T03:18:08;9.4;;;1.5;;
61627;SDS011;55193;52.102;5.242;2022-09-17T03:19:44;9.21;;;2.0;;
61627;SDS011;55193;52.102;5.242;2022-09-17T03:22:56;10.3;;;1.6;;
61627;SDS011;55193;52.102;5.242;2022-09-17T03:24:32;7.9;;;1.6;;
61627;SDS011;55193;52.102;5.242;2022-09-17T03:26:08;9.21;;;1.8;;
61627;SDS011;55193;52.102;5.242;2022-09-17T03:29:20;10.1;;;1.6;;
61627;SDS011;55193;52.102;5.242;2022-09-17T03:30:57;8.4;;;1.8;;
61627;SDS011;55193;52.102;5.242;2022-09-17T03:32:33;8.71;;;1.6;;
61627;SDS011;55193;52.102;5.242;2022-09-17T03:34:10;9.6;;;1.8;;
61627;SDS011;55193;52.102;5.242;2022-09-17T03:37:23;9.5;;;1.9;;
61627;SDS011;55193;52.102;5.242;2022-09-17T03:39:00;8.2;;;1.4;;
61627;SDS011;55193;52.102;5.242;2022-09-17T03:40:36;10.6;;;1.9;;
61627;SDS011;55193;52.102;5.242;2022-09-17T03:43:49;8.31;;;1.7;;
61627;SDS011;55193;52.102;5.242;2022-09-17T03:45:26;8.31;;;1.8;;
61627;SDS011;55193;52.102;5.242;2022-09-17T03:47:02;10.4;;;2.0;;
61627;SDS011;55193;52.102;5.242;2022-09-17T03:50:15;8.4;;;1.7;;
61627;SDS011;55193;52.102;5.242;2022-09-17T03:51:51;9.6;;;2.0;;
61627;SDS011;55193;52.102;5.242;2022-09-17T03:53:27;9.31;;;1.7;;
61627;SDS011;55193;52.102;5.242;2022-09-17T03:55:04;9.9;;;2.21;;
61627;SDS011;55193;52.102;5.242;2022-09-17T03:58:17;9.1;;;1.6;;
61627;SDS011;55193;52.102;5.242;2022-09-17T03:59:53;9.0;;;1.7;;
61627;SDS011;55193;52.102;5.242;2022-09-17T04:01:29;6.1;;;1.5;;
61627;SDS011;55193;52.102;5.242;2022-09-17T04:04:42;9.31;;;1.7;;
61627;SDS011;55193;52.102;5.242;2022-09-17T04:06:18;9.1;;;1.7;;
61627;SDS011;55193;52.102;5.242;2022-09-17T04:07:55;8.81;;;1.7;;
61627;SDS011;55193;52.102;5.242;2022-09-17T04:11:09;8.4;;;1.7;;
61627;SDS011;55193;52.102;5.242;2022-09-17T04:12:45;9.21;;;1.6;;
61627;SDS011;55193;52.102;5.242;2022-09-17T04:14:21;9.71;;;1.7;;
61627;SDS011;55193;52.102;5.242;2022-09-17T04:15:57;11.0;;;1.9;;
61627;SDS011;55193;52.102;5.242;2022-09-17T04:19:10;6.4;;;1.7;;
61627;SDS011;55193;52.102;5.242;2022-09-17T04:20:46;8.81;;;1.7;;
61627;SDS011;55193;52.102;5.242;2022-09-17T04:22:22;6.8;;;1.5;;
61627;SDS011;55193;52.102;5.242;2022-09-17T04:25:36;7.9;;;1.3;;
61627;SDS011;55193;52.102;5.242;2022-09-17T04:27:13;7.5;;;1.4;;
61627;SDS011;55193;52.102;5.242;2022-09-17T04:28:49;9.0;;;1.6;;
61627;SDS011;55193;52.102;5.242;2022-09-17T04:32:02;8.9;;;1.5;;
61627;SDS011;55193;52.102;5.242;2022-09-17T04:33:38;10.21;;;1.7;;
61627;SDS011;55193;52.102;5.242;2022-09-17T04:35:15;8.5;;;1.3;;
61627;SDS011;55193;52.102;5.242;2022-09-17T04:36:51;7.9;;;1.4;;
61627;SDS011;55193;52.102;5.242;2022-09-17T04:40:04;6.6;;;1.2;;
61627;SDS011;55193;52.102;5.242;2022-09-17T04:41:42;6.2;;;1.2;;
61627;SDS011;55193;52.102;5.242;2022-09-17T04:43:18;6.2;;;1.3;;
61627;SDS011;55193;52.102;5.242;2022-09-17T04:46:31;6.2;;;1.3;;
61627;SDS011;55193;52.102;5.242;2022-09-17T04:48:07;10.3;;;1.4;;
61627;SDS011;55193;52.102;5.242;2022-09-17T04:49:43;5.4;;;1.3;;
61627;SDS011;55193;52.102;5.242;2022-09-17T04:52:55;7.1;;;1.3;;
61627;SDS011;55193;52.102;5.242;2022-09-17T04:54:32;5.7;;;1.11;;
61627;SDS011;55193;52.102;5.242;2022-09-17T04:56:08;5.7;;;1.0;;
61627;SDS011;55193;52.102;5.242;2022-09-17T04:59:22;4.8;;;1.11;;
61627;SDS011;55193;52.102;5.242;2022-09-17T05:00:58;5.11;;;0.9;;
61627;SDS011;55193;52.102;5.242;2022-09-17T05:02:34;8.71;;;1.2;;
61627;SDS011;55193;52.102;5.242;2022-09-17T05:07:22;4.61;;;1.11;;
61627;SDS011;55193;52.102;5.242;2022-09-17T05:08:59;4.41;;;0.9;;
61627;SDS011;55193;52.102;5.242;2022-09-17T05:10:35;4.41;;;0.9;;
61627;SDS011;55193;52.102;5.242;2022-09-17T05:13:48;6.8;;;0.9;;
61627;SDS011;55193;52.102;5.242;2022-09-17T05:15:24;6.1;;;1.2;;
61627;SDS011;55193;52.102;5.242;2022-09-17T05:17:01;6.2;;;1.2;;
61627;SDS011;55193;52.102;5.242;2022-09-17T05:20:14;5.6;;;1.2;;
61627;SDS011;55193;52.102;5.242;2022-09-17T05:21:51;6.8;;;1.3;;
61627;SDS011;55193;52.102;5.242;2022-09-17T05:23:27;14.0;;;3.1;;
61627;SDS011;55193;52.102;5.242;2022-09-17T05:25:04;7.4;;;1.5;;
61627;SDS011;55193;52.102;5.242;2022-09-17T05:28:17;6.1;;;1.4;;
61627;SDS011;55193;52.102;5.242;2022-09-17T05:29:53;10.1;;;1.9;;
61627;SDS011;55193;52.102;5.242;2022-09-17T05:31:30;7.7;;;1.4;;
61627;SDS011;55193;52.102;5.242;2022-09-17T05:34:42;5.9;;;1.11;;
61627;SDS011;55193;52.102;5.242;2022-09-17T05:36:19;6.0;;;1.2;;
61627;SDS011;55193;52.102;5.242;2022-09-17T05:37:56;4.2;;;1.0;;
61627;SDS011;55193;52.102;5.242;2022-09-17T05:41:09;5.6;;;1.2;;
61627;SDS011;55193;52.102;5.242;2022-09-17T05:42:45;6.9;;;1.2;;
61627;SDS011;55193;52.102;5.242;2022-09-17T05:44:22;7.1;;;1.2;;
61627;SDS011;55193;52.102;5.242;2022-09-17T05:45:59;5.6;;;0.8;;
61627;SDS011;55193;52.102;5.242;2022-09-17T05:49:14;4.7;;;1.0;;
61627;SDS011;55193;52.102;5.242;2022-09-17T05:50:50;5.6;;;1.2;;
61627;SDS011;55193;52.102;5.242;2022-09-17T05:52:27;3.5;;;0.9;;
61627;SDS011;55193;52.102;5.242;2022-09-17T05:55:41;4.61;;;0.9;;
61627;SDS011;55193;52.102;5.242;2022-09-17T05:57:19;5.3;;;1.11;;
61627;SDS011;55193;52.102;5.242;2022-09-17T05:58:56;5.0;;;1.11;;
61627;SDS011;55193;52.102;5.242;2022-09-17T06:02:10;6.4;;;1.4;;
61627;SDS011;55193;52.102;5.242;2022-09-17T06:03:48;7.2;;;1.3;;
61627;SDS011;55193;52.102;5.242;2022-09-17T06:05:24;5.6;;;1.2;;
61627;SDS011;55193;52.102;5.242;2022-09-17T06:07:02;7.8;;;2.8;;
61627;SDS011;55193;52.102;5.242;2022-09-17T06:10:16;9.6;;;1.8;;
61627;SDS011;55193;52.102;5.242;2022-09-17T06:11:52;6.8;;;1.4;;
61627;SDS011;55193;52.102;5.242;2022-09-17T06:13:29;4.3;;;1.0;;
61627;SDS011;55193;52.102;5.242;2022-09-17T06:16:46;5.4;;;1.11;;
61627;SDS011;55193;52.102;5.242;2022-09-17T06:18:22;4.1;;;1.0;;
61627;SDS011;55193;52.102;5.242;2022-09-17T06:20:00;7.3;;;1.11;;
61627;SDS011;55193;52.102;5.242;2022-09-17T06:21:37;4.8;;;0.9;;
61627;SDS011;55193;52.102;5.242;2022-09-17T06:24:50;7.9;;;1.2;;
61627;SDS011;55193;52.102;5.242;2022-09-17T06:26:27;5.8;;;1.11;;
61627;SDS011;55193;52.102;5.242;2022-09-17T06:28:03;5.3;;;1.0;;
61627;SDS011;55193;52.102;5.242;2022-09-17T06:31:16;5.6;;;1.3;;
61627;SDS011;55193;52.102;5.242;2022-09-17T06:32:52;6.5;;;1.5;;
61627;SDS011;55193;52.102;5.242;2022-09-17T06:34:29;6.5;;;1.11;;
61627;SDS011;55193;52.102;5.242;2022-09-17T06:37:44;5.3;;;1.0;;
61627;SDS011;55193;52.102;5.242;2022-09-17T06:39:21;5.0;;;0.9;;
61627;SDS011;55193;52.102;5.242;2022-09-17T06:40:57;5.5;;;1.2;;
61627;SDS011;55193;52.102;5.242;2022-09-17T06:42:33;6.4;;;1.11;;
61627;SDS011;55193;52.102;5.242;2022-09-17T06:45:50;5.0;;;1.11;;
61627;SDS011;55193;52.102;5.242;2022-09-17T06:47:27;5.4;;;1.11;;
61627;SDS011;55193;52.102;5.242;2022-09-17T06:49:03;6.3;;;1.2;;
61627;SDS011;55193;52.102;5.242;2022-09-17T06:52:16;3.8;;;1.0;;
61627;SDS011;55193;52.102;5.242;2022-09-17T06:53:52;5.9;;;1.11;;
61627;SDS011;55193;52.102;5.242;2022-09-17T06:55:28;5.7;;;1.11;;
61627;SDS011;55193;52.102;5.242;2022-09-17T06:57:04;5.11;;;1.2;;
61627;SDS011;55193;52.102;5.242;2022-09-17T07:00:19;4.5;;;0.9;;
61627;SDS011;55193;52.102;5.242;2022-09-17T07:01:55;5.11;;;1.2;;
61627;SDS011;55193;52.102;5.242;2022-09-17T07:03:31;4.2;;;1.11;;
61627;SDS011;55193;52.102;5.242;2022-09-17T07:06:44;8.5;;;1.4;;
61627;SDS011;55193;52.102;5.242;2022-09-17T07:08:20;9.21;;;1.6;;
61627;SDS011;55193;52.102;5.242;2022-09-17T07:09:57;7.8;;;1.5;;
61627;SDS011;55193;52.102;5.242;2022-09-17T07:13:10;6.1;;;1.5;;
61627;SDS011;55193;52.102;5.242;2022-09-17T07:14:47;5.5;;;1.3;;
61627;SDS011;55193;52.102;5.242;2022-09-17T07:16:23;8.4;;;1.3;;
61627;SDS011;55193;52.102;5.242;2022-09-17T07:18:06;8.9;;;1.4;;
61627;SDS011;55193;52.102;5.242;2022-09-17T07:21:20;5.4;;;1.0;;
61627;SDS011;55193;52.102;5.242;2022-09-17T07:22:56;6.0;;;1.2;;
61627;SDS011;55193;52.102;5.242;2022-09-17T07:24:33;6.8;;;1.4;;
61627;SDS011;55193;52.102;5.242;2022-09-17T07:27:48;4.5;;;1.0;;
61627;SDS011;55193;52.102;5.242;2022-09-17T07:29:26;6.5;;;1.4;;
61627;SDS011;55193;52.102;5.242;2022-09-17T07:31:03;4.61;;;1.11;;
61627;SDS011;55193;52.102;5.242;2022-09-17T07:32:40;5.2;;;1.2;;
61627;SDS011;55193;52.102;5.242;2022-09-17T07:35:54;5.0;;;1.11;;
61627;SDS011;55193;52.102;5.242;2022-09-17T07:37:31;7.9;;;1.3;;
61627;SDS011;55193;52.102;5.242;2022-09-17T07:39:08;6.7;;;1.3;;
61627;SDS011;55193;52.102;5.242;2022-09-17T07:42:28;6.7;;;1.3;;
61627;SDS011;55193;52.102;5.242;2022-09-17T07:44:05;5.0;;;1.2;;
61627;SDS011;55193;52.102;5.242;2022-09-17T07:45:41;5.5;;;1.0;;
61627;SDS011;55193;52.102;5.242;2022-09-17T07:47:17;7.4;;;1.6;;
61627;SDS011;55193;52.102;5.242;2022-09-17T07:50:32;4.61;;;1.2;;
61627;SDS011;55193;52.102;5.242;2022-09-17T07:52:08;6.8;;;1.4;;
61627;SDS011;55193;52.102;5.242;2022-09-17T07:53:44;7.5;;;1.2;;
61627;SDS011;55193;52.102;5.242;2022-09-17T07:57:02;4.61;;;1.0;;
61627;SDS011;55193;52.102;5.242;2022-09-17T07:58:39;6.1;;;1.4;;
61627;SDS011;55193;52.102;5.242;2022-09-17T08:00:15;8.9;;;3.3;;
61627;SDS011;55193;52.102;5.242;2022-09-17T08:03:27;5.6;;;1.3;;
61627;SDS011;55193;52.102;5.242;2022-09-17T08:05:04;4.7;;;1.11;;
61627;SDS011;55193;52.102;5.242;2022-09-17T08:06:40;6.0;;;1.3;;
61627;SDS011;55193;52.102;5.242;2022-09-17T08:08:17;6.6;;;1.2;;
61627;SDS011;55193;52.102;5.242;2022-09-17T08:11:29;4.8;;;0.9;;
61627;SDS011;55193;52.102;5.242;2022-09-17T08:13:06;6.3;;;1.3;;
61627;SDS011;55193;52.102;5.242;2022-09-17T08:14:43;4.41;;;1.0;;
61627;SDS011;55193;52.102;5.242;2022-09-17T08:17:57;5.0;;;1.2;;
61627;SDS011;55193;52.102;5.242;2022-09-17T08:19:33;4.41;;;1.2;;
61627;SDS011;55193;52.102;5.242;2022-09-17T08:21:10;5.4;;;1.2;;
61627;SDS011;55193;52.102;5.242;2022-09-17T08:22:49;5.9;;;1.4;;
61627;SDS011;55193;52.102;5.242;2022-09-17T08:26:02;7.3;;;1.11;;
61627;SDS011;55193;52.102;5.242;2022-09-17T08:27:40;4.91;;;1.11;;
61627;SDS011;55193;52.102;5.242;2022-09-17T08:29:16;6.5;;;1.3;;
61627;SDS011;55193;52.102;5.242;2022-09-17T08:32:34;5.6;;;1.3;;
61627;SDS011;55193;52.102;5.242;2022-09-17T08:34:09;4.7;;;1.0;;
61627;SDS011;55193;52.102;5.242;2022-09-17T08:35:49;6.4;;;1.3;;
61627;SDS011;55193;52.102;5.242;2022-09-17T08:39:03;5.5;;;1.2;;
61627;SDS011;55193;52.102;5.242;2022-09-17T08:40:41;5.3;;;1.0;;
61627;SDS011;55193;52.102;5.242;2022-09-17T08:42:35;5.6;;;1.11;;
61627;SDS011;55193;52.102;5.242;2022-09-17T08:44:19;4.8;;;1.11;;
61627;SDS011;55193;52.102;5.242;2022-09-17T08:46:01;4.1;;;0.9;;
61627;SDS011;55193;52.102;5.242;2022-09-17T08:49:23;5.11;;;1.0;;
61627;SDS011;55193;52.102;5.242;2022-09-17T08:51:09;6.6;;;1.4;;
61627;SDS011;55193;52.102;5.242;2022-09-17T08:53:08;6.3;;;1.2;;
61627;SDS011;55193;52.102;5.242;2022-09-17T08:55:12;5.3;;;1.2;;
61627;SDS011;55193;52.102;5.242;2022-09-17T08:57:03;5.7;;;1.2;;
61627;SDS011;55193;52.102;5.242;2022-09-17T08:58:55;6.6;;;1.2;;
61627;SDS011;55193;52.102;5.242;2022-09-17T09:00:43;4.61;;;1.0;;
61627;SDS011;55193;52.102;5.242;2022-09-17T09:04:31;5.5;;;1.0;;
61627;SDS011;55193;52.102;5.242;2022-09-17T09:06:21;5.0;;;1.0;;
61627;SDS011;55193;52.102;5.242;2022-09-17T09:08:03;3.4;;;1.11;;
61627;SDS011;55193;52.102;5.242;2022-09-17T09:09:48;5.6;;;0.9;;
61627;SDS011;55193;52.102;5.242;2022-09-17T09:11:32;3.9;;;1.0;;
61627;SDS011;55193;52.102;5.242;2022-09-17T09:13:10;5.4;;;1.2;;
61627;SDS011;55193;52.102;5.242;2022-09-17T09:16:36;4.8;;;0.9;;
61627;SDS011;55193;52.102;5.242;2022-09-17T09:18:17;4.5;;;1.0;;
61627;SDS011;55193;52.102;5.242;2022-09-17T09:19:55;5.0;;;0.9;;
61627;SDS011;55193;52.102;5.242;2022-09-17T09:21:33;3.9;;;0.9;;
61627;SDS011;55193;52.102;5.242;2022-09-17T09:25:13;4.3;;;1.0;;
61627;SDS011;55193;52.102;5.242;2022-09-17T09:26:57;3.9;;;0.9;;
61627;SDS011;55193;52.102;5.242;2022-09-17T09:28:47;5.6;;;1.0;;
61627;SDS011;55193;52.102;5.242;2022-09-17T09:31:10;6.0;;;1.11;;
61627;SDS011;55193;52.102;5.242;2022-09-17T09:33:05;5.8;;;1.3;;
61627;SDS011;55193;52.102;5.242;2022-09-17T09:34:48;2.9;;;0.9;;
61627;SDS011;55193;52.102;5.242;2022-09-17T09:36:26;4.2;;;1.0;;
61627;SDS011;55193;52.102;5.242;2022-09-17T09:40:00;5.0;;;1.11;;
61627;SDS011;55193;52.102;5.242;2022-09-17T09:41:56;4.1;;;1.11;;
61627;SDS011;55193;52.102;5.242;2022-09-17T09:43:38;5.2;;;1.11;;
61627;SDS011;55193;52.102;5.242;2022-09-17T09:45:32;3.5;;;0.9;;
61627;SDS011;55193;52.102;5.242;2022-09-17T09:47:22;5.11;;;1.0;;
61627;SDS011;55193;52.102;5.242;2022-09-17T09:49:21;7.0;;;1.3;;
61627;SDS011;55193;52.102;5.242;2022-09-17T09:51:16;4.41;;;0.9;;
61627;SDS011;55193;52.102;5.242;2022-09-17T09:53:04;5.0;;;1.0;;
61627;SDS011;55193;52.102;5.242;2022-09-17T09:54:57;5.0;;;0.9;;
61627;SDS011;55193;52.102;5.242;2022-09-17T09:58:33;4.61;;;0.8;;
61627;SDS011;55193;52.102;5.242;2022-09-17T10:00:18;5.9;;;1.11;;
61627;SDS011;55193;52.102;5.242;2022-09-17T10:01:58;6.9;;;1.3;;
61627;SDS011;55193;52.102;5.242;2022-09-17T10:03:35;4.7;;;1.11;;
61627;SDS011;55193;52.102;5.242;2022-09-17T10:06:52;5.6;;;1.2;;
61627;SDS011;55193;52.102;5.242;2022-09-17T10:08:35;6.3;;;0.9;;
61627;SDS011;55193;52.102;5.242;2022-09-17T10:10:13;4.91;;;1.11;;
61627;SDS011;55193;52.102;5.242;2022-09-17T10:12:05;5.8;;;1.0;;
61627;SDS011;55193;52.102;5.242;2022-09-17T10:13:52;4.91;;;0.8;;
61627;SDS011;55193;52.102;5.242;2022-09-17T10:15:50;5.0;;;1.0;;
61627;SDS011;55193;52.102;5.242;2022-09-17T10:19:10;3.2;;;0.8;;
61627;SDS011;55193;52.102;5.242;2022-09-17T10:20:49;3.9;;;0.8;;
61627;SDS011;55193;52.102;5.242;2022-09-17T10:22:29;4.0;;;0.9;;
61627;SDS011;55193;52.102;5.242;2022-09-17T10:25:57;4.2;;;1.11;;
61627;SDS011;55193;52.102;5.242;2022-09-17T10:27:35;4.91;;;1.0;;
61627;SDS011;55193;52.102;5.242;2022-09-17T10:29:12;4.8;;;1.0;;
61627;SDS011;55193;52.102;5.242;2022-09-17T10:30:54;3.6;;;0.9;;
61627;SDS011;55193;52.102;5.242;2022-09-17T10:32:32;3.6;;;0.8;;
61627;SDS011;55193;52.102;5.242;2022-09-17T10:35:57;5.2;;;0.9;;
61627;SDS011;55193;52.102;5.242;2022-09-17T10:37:42;3.8;;;0.8;;
61627;SDS011;55193;52.102;5.242;2022-09-17T10:39:29;4.41;;;0.9;;
61627;SDS011;55193;52.102;5.242;2022-09-17T10:41:10;5.4;;;1.0;;
61627;SDS011;55193;52.102;5.242;2022-09-17T10:44:51;4.61;;;1.3;;
61627;SDS011;55193;52.102;5.242;2022-09-17T10:46:32;3.7;;;1.0;;
61627;SDS011;55193;52.102;5.242;2022-09-17T10:48:12;4.1;;;1.0;;
61627;SDS011;55193;52.102;5.242;2022-09-17T10:49:53;4.91;;;1.11;;
61627;SDS011;55193;52.102;5.242;2022-09-17T10:51:32;6.1;;;1.4;;
61627;SDS011;55193;52.102;5.242;2022-09-17T10:55:24;4.7;;;1.0;;
61627;SDS011;55193;52.102;5.242;2022-09-17T10:57:06;6.0;;;1.4;;
61627;SDS011;55193;52.102;5.242;2022-09-17T10:58:54;6.1;;;1.3;;
61627;SDS011;55193;52.102;5.242;2022-09-17T11:00:43;5.4;;;1.4;;
61627;SDS011;55193;52.102;5.242;2022-09-17T11:02:38;7.2;;;1.4;;
61627;SDS011;55193;52.102;5.242;2022-09-17T11:06:34;5.5;;;1.3;;
61627;SDS011;55193;52.102;5.242;2022-09-17T11:09:58;7.2;;;1.4;;
61627;SDS011;55193;52.102;5.242;2022-09-17T11:11:52;7.2;;;1.4;;
61627;SDS011;55193;52.102;5.242;2022-09-17T11:13:39;7.8;;;1.6;;
61627;SDS011;55193;52.102;5.242;2022-09-17T11:15:29;8.9;;;1.8;;
61627;SDS011;55193;52.102;5.242;2022-09-17T11:17:23;7.2;;;1.8;;
61627;SDS011;55193;52.102;5.242;2022-09-17T11:19:18;8.5;;;1.7;;
61627;SDS011;55193;52.102;5.242;2022-09-17T11:21:14;8.0;;;1.5;;
61627;SDS011;55193;52.102;5.242;2022-09-17T11:23:07;6.0;;;1.5;;
61627;SDS011;55193;52.102;5.242;2022-09-17T11:25:06;8.9;;;1.7;;
61627;SDS011;55193;52.102;5.242;2022-09-17T11:27:00;9.81;;;1.8;;
61627;SDS011;55193;52.102;5.242;2022-09-17T11:30:42;14.6;;;2.7;;
61627;SDS011;55193;52.102;5.242;2022-09-17T11:32:33;11.4;;;2.21;;
61627;SDS011;55193;52.102;5.242;2022-09-17T11:34:26;8.81;;;1.6;;
61627;SDS011;55193;52.102;5.242;2022-09-17T11:36:09;8.4;;;1.6;;
61627;SDS011;55193;52.102;5.242;2022-09-17T11:37:49;9.81;;;1.9;;
61627;SDS011;55193;52.102;5.242;2022-09-17T11:39:32;10.1;;;1.7;;
61627;SDS011;55193;52.102;5.242;2022-09-17T11:42:58;7.6;;;1.5;;
61627;SDS011;55193;52.102;5.242;2022-09-17T11:44:41;6.7;;;1.5;;
61627;SDS011;55193;52.102;5.242;2022-09-17T11:46:26;7.9;;;1.6;;
61627;SDS011;55193;52.102;5.242;2022-09-17T11:48:10;8.5;;;1.5;;
61627;SDS011;55193;52.102;5.242;2022-09-17T11:51:35;8.31;;;1.6;;
61627;SDS011;55193;52.102;5.242;2022-09-17T11:53:16;8.2;;;1.6;;
61627;SDS011;55193;52.102;5.242;2022-09-17T11:54:58;7.3;;;1.5;;
61627;SDS011;55193;52.102;5.242;2022-09-17T11:56:53;6.1;;;1.2;;
61627;SDS011;55193;52.102;5.242;2022-09-17T11:58:41;6.6;;;1.2;;
61627;SDS011;55193;52.102;5.242;2022-09-17T12:01:59;6.6;;;1.5;;
61627;SDS011;55193;52.102;5.242;2022-09-17T12:03:42;8.0;;;1.4;;
61627;SDS011;55193;52.102;5.242;2022-09-17T12:05:25;6.9;;;1.5;;
61627;SDS011;55193;52.102;5.242;2022-09-17T12:07:09;8.4;;;1.6;;
61627;SDS011;55193;52.102;5.242;2022-09-17T12:08:58;6.3;;;1.4;;
61627;SDS011;55193;52.102;5.242;2022-09-17T12:12:24;7.7;;;1.5;;
61627;SDS011;55193;52.102;5.242;2022-09-17T12:14:04;8.31;;;1.7;;
61627;SDS011;55193;52.102;5.242;2022-09-17T12:15:51;7.5;;;1.8;;
61627;SDS011;55193;52.102;5.242;2022-09-17T12:17:46;9.4;;;1.9;;
61627;SDS011;55193;52.102;5.242;2022-09-17T12:19:31;8.1;;;1.6;;
61627;SDS011;55193;52.102;5.242;2022-09-17T12:22:54;9.21;;;1.9;;
61627;SDS011;55193;52.102;5.242;2022-09-17T12:24:35;11.1;;;1.8;;
61627;SDS011;55193;52.102;5.242;2022-09-17T12:26:15;10.8;;;1.8;;
61627;SDS011;55193;52.102;5.242;2022-09-17T12:28:02;7.0;;;1.5;;
61627;SDS011;55193;52.102;5.242;2022-09-17T12:29:50;9.5;;;1.7;;
61627;SDS011;55193;52.102;5.242;2022-09-17T12:31:49;11.4;;;1.8;;
61627;SDS011;55193;52.102;5.242;2022-09-17T12:35:22;7.7;;;1.5;;
61627;SDS011;55193;52.102;5.242;2022-09-17T12:37:09;6.8;;;1.4;;
61627;SDS011;55193;52.102;5.242;2022-09-17T12:39:24;6.4;;;1.3;;
61627;SDS011;55193;52.102;5.242;2022-09-17T12:41:32;6.7;;;1.5;;
61627;SDS011;55193;52.102;5.242;2022-09-17T12:43:28;6.3;;;1.4;;
61627;SDS011;55193;52.102;5.242;2022-09-17T12:45:22;8.1;;;2.0;;
61627;SDS011;55193;52.102;5.242;2022-09-17T12:47:22;8.1;;;1.6;;
61627;SDS011;55193;52.102;5.242;2022-09-17T12:49:36;7.0;;;1.3;;
61627;SDS011;55193;52.102;5.242;2022-09-17T12:51:44;9.81;;;1.7;;
61627;SDS011;55193;52.102;5.242;2022-09-17T12:53:29;7.7;;;1.8;;
61627;SDS011;55193;52.102;5.242;2022-09-17T12:55:22;8.9;;;1.8;;
61627;SDS011;55193;52.102;5.242;2022-09-17T12:57:11;6.1;;;1.6;;